Time;durP1;ratioP1;P1;durP2;ratioP2;P2;SDS_P1;SDS_P2;PMS_P1;PMS_P2;Temp;Humidity;BMP_temperature;BMP_pressure;BME280_temperature;BME280_humidity;BME280_pressure;Samples;Min_cycle;Max_cycle;Signal;HPM_P1;HPM_P2
2022/09/11 00:00:55;;;;;;;6.57;2.08;;;;;;;20.86;100.00;100245.41;5028505;28;20126;-84
2022/09/11 00:03:23;;;;;;;9.65;2.03;;;;;;;20.94;100.00;100238.84;5028666;28;20089;-87
2022/09/11 00:06:02;;;;;;;6.72;2.00;;;;;;;20.88;100.00;100240.59;5029267;28;20520;-84
2022/09/11 00:08:32;;;;;;;9.43;1.63;;;;;;;21.02;100.00;100244.69;5029926;28;20034;-86
2022/09/11 00:11:16;;;;;;;8.65;1.70;;;;;;;20.99;100.00;100245.16;5030818;28;20050;-87
2022/09/11 00:13:52;;;;;;;4.38;1.60;;;;;;;20.60;100.00;100245.91;5031693;28;20037;-82
2022/09/11 00:16:40;;;;;;;8.93;1.70;;;;;;;20.36;100.00;100246.91;5031421;28;20033;-84
2022/09/11 00:19:21;;;;;;;6.72;1.90;;;;;;;20.25;100.00;100245.03;5031640;28;20064;-84
2022/09/11 00:21:54;;;;;;;10.18;1.77;;;;;;;20.16;100.00;100235.63;5032298;28;20056;-85
2022/09/11 00:24:26;;;;;;;9.63;1.30;;;;;;;20.21;100.00;100238.47;5030303;28;20034;-83
2022/09/11 00:26:51;;;;;;;9.77;2.20;;;;;;;19.98;100.00;100245.44;5031416;28;20069;-85
2022/09/11 00:29:17;;;;;;;6.40;2.13;;;;;;;19.93;100.00;100247.16;5032200;28;20030;-84
2022/09/11 00:31:48;;;;;;;9.15;1.90;;;;;;;19.89;100.00;100244.09;5031796;28;20042;-85
2022/09/11 00:34:19;;;;;;;8.13;1.95;;;;;;;19.95;100.00;100240.50;5032495;28;20046;-85
2022/09/11 00:37:08;;;;;;;4.57;1.80;;;;;;;19.83;100.00;100236.94;5029708;28;20057;-86
2022/09/11 00:39:53;;;;;;;7.75;2.00;;;;;;;19.78;100.00;100234.16;5030413;28;20045;-85
2022/09/11 00:42:27;;;;;;;13.65;2.13;;;;;;;19.86;100.00;100235.66;5034748;28;20038;-86
2022/09/11 00:45:08;;;;;;;8.73;1.98;;;;;;;19.80;100.00;100234.72;5033422;28;20049;-85
2022/09/11 00:47:35;;;;;;;9.23;1.85;;;;;;;19.69;100.00;100234.69;5028647;28;20050;-88
2022/09/11 00:50:16;;;;;;;6.15;1.55;;;;;;;19.66;100.00;100245.88;5244523;23;20054;-87
2022/09/11 00:53:00;;;;;;;4.65;1.80;;;;;;;19.67;100.00;100236.78;5005856;28;20060;-84
2022/09/11 00:55:34;;;;;;;6.13;1.80;;;;;;;19.69;100.00;100230.13;5008108;28;20042;-84
2022/09/11 00:58:22;;;;;;;10.30;1.88;;;;;;;19.70;100.00;100242.53;4994271;28;20046;-83
2022/09/11 01:00:57;;;;;;;10.18;2.22;;;;;;;19.66;100.00;100241.34;5010486;28;20077;-83
2022/09/11 01:03:25;;;;;;;6.45;1.75;;;;;;;19.66;100.00;100241.34;5007677;28;20030;-86
2022/09/11 01:05:57;;;;;;;6.10;1.70;;;;;;;19.69;100.00;100238.19;5008775;28;20070;-83
2022/09/11 01:08:26;;;;;;;11.98;2.20;;;;;;;19.73;100.00;100231.31;4987229;28;20050;-84
2022/09/11 01:11:05;;;;;;;6.75;1.77;;;;;;;19.86;100.00;100230.28;5003390;28;20049;-82
2022/09/11 01:14:08;;;;;;;6.82;1.80;;;;;;;19.89;100.00;100229.81;4989777;28;20516;-84
2022/09/11 01:16:41;;;;;;;5.55;2.03;;;;;;;19.85;100.00;100229.47;4990389;28;20470;-83
2022/09/11 01:19:40;;;;;;;9.75;1.75;;;;;;;19.94;100.00;100228.09;4989193;28;20082;-85
2022/09/11 01:22:27;;;;;;;8.15;1.92;;;;;;;19.85;100.00;100234.84;4912127;29;20063;-84
2022/09/11 01:25:27;;;;;;;7.20;1.85;;;;;;;19.76;100.00;100233.53;4913651;29;20044;-82
2022/09/11 01:27:57;;;;;;;10.95;1.70;;;;;;;19.58;100.00;100250.56;4954745;28;20055;-84
2022/09/11 01:30:36;;;;;;;7.97;1.92;;;;;;;19.55;100.00;100247.50;4986973;28;20034;-84
2022/09/11 01:33:17;;;;;;;4.53;1.55;;;;;;;19.56;100.00;100257.19;5003487;28;20371;-84
2022/09/11 01:35:58;;;;;;;7.50;1.90;;;;;;;19.57;100.00;100258.84;4988467;28;20043;-81
2022/09/11 01:38:33;;;;;;;6.03;2.08;;;;;;;19.57;100.00;100261.53;5002757;28;20106;-83
2022/09/11 01:41:22;;;;;;;7.95;1.95;;;;;;;19.49;100.00;100267.19;4970631;28;20106;-85
2022/09/11 01:46:21;;;;;;;6.03;1.80;;;;;;;19.35;100.00;100261.16;5025811;28;20042;-83
2022/09/11 01:49:24;;;;;;;7.13;1.90;;;;;;;19.29;100.00;100256.66;5023939;28;20077;-85
2022/09/11 01:52:01;;;;;;;9.18;1.70;;;;;;;19.27;100.00;100274.06;5028365;28;20041;-84
2022/09/11 01:54:34;;;;;;;6.03;1.63;;;;;;;19.18;100.00;100264.66;5024857;28;20046;-83
2022/09/11 01:57:18;;;;;;;6.65;1.70;;;;;;;19.18;100.00;100272.72;5012753;28;20082;-83
2022/09/11 01:59:59;;;;;;;9.77;1.92;;;;;;;19.14;100.00;100266.16;5029662;28;20065;-83
2022/09/11 02:02:39;;;;;;;10.00;1.90;;;;;;;19.10;100.00;100269.28;5029065;28;20041;-84
2022/09/11 02:05:28;;;;;;;5.50;1.50;;;;;;;19.17;100.00;100263.00;5030817;28;20041;-83
2022/09/11 02:08:03;;;;;;;11.15;1.80;;;;;;;19.18;100.00;100270.03;5030013;28;20098;-84
2022/09/11 02:10:45;;;;;;;8.90;1.90;;;;;;;19.17;100.00;100271.06;5013584;28;20117;-82
2022/09/11 02:13:24;;;;;;;5.38;1.70;;;;;;;19.16;100.00;100272.94;5015040;28;20068;-84
2022/09/11 02:15:58;;;;;;;9.73;2.10;;;;;;;19.12;100.00;100262.88;5031821;28;20113;-82
2022/09/11 02:18:32;;;;;;;5.82;1.83;;;;;;;19.05;100.00;100265.63;5047232;28;20034;-84
2022/09/11 02:21:04;;;;;;;9.35;2.13;;;;;;;19.05;100.00;100274.53;5015095;28;20046;-84
2022/09/11 02:23:32;;;;;;;10.02;1.88;;;;;;;19.16;100.00;100272.13;5047680;28;20042;-83
2022/09/11 02:26:08;;;;;;;11.15;1.75;;;;;;;19.16;100.00;100277.50;5033284;28;20097;-82
2022/09/11 02:28:36;;;;;;;7.20;2.03;;;;;;;19.17;100.00;100271.91;5015001;28;20064;-83
2022/09/11 02:31:04;;;;;;;8.10;1.98;;;;;;;19.13;100.00;100267.19;5014325;28;20069;-83
2022/09/11 02:33:40;;;;;;;9.15;2.45;;;;;;;19.13;100.00;100272.56;5031501;28;20034;-85
2022/09/11 02:36:39;;;;;;;9.68;2.10;;;;;;;19.15;100.00;100275.88;5030708;28;20042;-85
2022/09/11 02:39:22;;;;;;;10.40;1.63;;;;;;;19.08;100.00;100281.31;5046533;28;20092;-86
2022/09/11 02:42:23;;;;;;;9.23;1.95;;;;;;;18.91;100.00;100286.44;5047369;28;20411;-85
2022/09/11 02:45:08;;;;;;;11.85;1.55;;;;;;;18.73;100.00;100282.88;5031966;28;20040;-85
2022/09/11 02:47:57;;;;;;;7.35;1.40;;;;;;;18.40;100.00;100278.59;5046957;28;20117;-85
2022/09/11 02:50:35;;;;;;;4.75;1.45;;;;;;;18.28;100.00;100279.53;5031182;28;20049;-81
2022/09/11 02:53:22;;;;;;;7.30;1.70;;;;;;;18.10;100.00;100274.91;5030004;28;20053;-83
2022/09/11 02:56:04;;;;;;;5.47;2.03;;;;;;;18.08;100.00;100288.53;5031135;28;20120;-84
2022/09/11 02:58:57;;;;;;;6.68;1.70;;;;;;;17.93;100.00;100288.00;5029555;28;20125;-83
2022/09/11 03:01:30;;;;;;;6.93;1.70;;;;;;;17.79;100.00;100291.00;5044713;28;20101;-83
2022/09/11 03:04:05;;;;;;;6.53;2.22;;;;;;;17.54;100.00;100290.84;5014035;28;20038;-81
2022/09/11 03:06:35;;;;;;;6.93;2.15;;;;;;;17.54;100.00;100290.84;5029339;28;20030;-82
2022/09/11 03:09:04;;;;;;;11.40;3.35;;;;;;;17.54;100.00;100290.84;5044453;28;20034;-81
2022/09/11 03:11:37;;;;;;;8.70;2.70;;;;;;;17.58;100.00;100294.78;5029727;28;20056;-82
2022/09/11 03:14:09;;;;;;;15.57;3.50;;;;;;;17.66;100.00;100296.41;5027730;28;20060;-85
2022/09/11 03:16:37;;;;;;;12.50;4.50;;;;;;;17.75;100.00;100295.97;5028588;28;20121;-81
2022/09/11 03:19:06;;;;;;;11.10;4.47;;;;;;;17.82;100.00;100288.72;5026593;28;20441;-83
2022/09/11 03:21:33;;;;;;;12.88;3.97;;;;;;;17.88;100.00;100298.56;5027438;28;20041;-86
2022/09/11 03:24:00;;;;;;;11.70;4.07;;;;;;;17.93;100.00;100295.25;5026545;28;20036;-80
2022/09/11 03:26:32;;;;;;;10.25;3.90;;;;;;;17.95;100.00;100291.31;5040739;28;20038;-83
2022/09/11 03:28:58;;;;;;;9.35;4.05;;;;;;;17.99;100.00;100297.91;5026165;28;20038;-83
2022/09/11 03:31:24;;;;;;;6.88;3.33;;;;;;;18.02;100.00;100296.63;5027756;28;20041;-86
2022/09/11 03:33:50;;;;;;;10.05;3.40;;;;;;;17.93;100.00;100293.38;5042640;28;20034;-82
2022/09/11 03:36:16;;;;;;;13.30;3.30;;;;;;;17.95;100.00;100291.31;5026550;28;20038;-81
2022/09/11 03:38:46;;;;;;;10.77;3.05;;;;;;;17.88;100.00;100298.56;5027734;28;20068;-80
2022/09/11 03:41:15;;;;;;;13.10;3.50;;;;;;;17.75;100.00;100304.00;5029265;28;20493;-85
2022/09/11 03:43:45;;;;;;;8.23;2.90;;;;;;;17.73;100.00;100300.69;5012018;28;20034;-80
2022/09/11 03:46:11;;;;;;;13.65;3.10;;;;;;;17.73;100.00;100298.00;5045045;28;20076;-83
2022/09/11 03:48:37;;;;;;;10.50;3.00;;;;;;;17.62;100.00;100301.38;5013211;28;20042;-83
2022/09/11 03:51:04;;;;;;;9.07;2.67;;;;;;;17.67;100.00;100301.56;5029917;28;20033;-82
2022/09/11 03:53:34;;;;;;;14.70;2.80;;;;;;;17.71;100.00;100308.13;5028996;28;20140;-84
2022/09/11 03:56:03;;;;;;;5.35;2.58;;;;;;;17.70;100.00;100301.13;5044621;28;20036;-84
2022/09/11 03:58:33;;;;;;;12.43;3.00;;;;;;;17.67;100.00;100304.22;5027924;28;20065;-81
2022/09/11 04:00:59;;;;;;;11.57;2.88;;;;;;;17.78;100.00;100306.25;5026112;28;20037;-86
2022/09/11 04:03:31;;;;;;;6.53;2.85;;;;;;;17.72;100.00;100296.38;5027727;28;20042;-84
2022/09/11 04:05:59;;;;;;;10.30;2.70;;;;;;;17.69;100.00;100291.47;5029513;28;20056;-79
2022/09/11 04:08:33;;;;;;;9.68;2.78;;;;;;;17.69;100.00;100291.47;5028898;28;20026;-83
2022/09/11 04:11:06;;;;;;;8.10;2.67;;;;;;;17.69;100.00;100291.47;5030560;28;20045;-80
2022/09/11 04:13:36;;;;;;;7.78;2.63;;;;;;;17.83;100.00;100298.38;5014423;28;20034;-84
2022/09/11 04:16:09;;;;;;;11.00;2.85;;;;;;;17.88;100.00;100295.88;5045481;28;20052;-86
2022/09/11 04:18:41;;;;;;;9.85;2.83;;;;;;;17.84;100.00;100294.66;5044981;28;20093;-86
2022/09/11 04:21:15;;;;;;;14.13;3.45;;;;;;;17.85;100.00;100307.03;4996621;28;20042;-83
2022/09/11 04:23:42;;;;;;;13.43;2.63;;;;;;;17.80;100.00;100306.03;5045411;28;20040;-80
2022/09/11 04:26:19;;;;;;;12.75;3.03;;;;;;;17.80;100.00;100303.34;5011566;28;20038;-86
2022/09/11 04:28:49;;;;;;;9.25;2.50;;;;;;;17.93;100.00;100298.72;5011277;28;20050;-84
2022/09/11 04:31:17;;;;;;;15.07;2.40;;;;;;;18.03;100.00;100299.09;5026549;28;20489;-80
2022/09/11 04:33:44;;;;;;;10.93;2.53;;;;;;;18.04;100.00;100299.91;5042445;28;20042;-84
2022/09/11 04:36:12;;;;;;;8.82;2.30;;;;;;;18.07;100.00;100304.84;5026468;28;20030;-81
2022/09/11 04:38:40;;;;;;;9.30;2.53;;;;;;;18.06;100.00;100301.31;5010284;28;20038;-82
2022/09/11 04:41:10;;;;;;;6.18;2.45;;;;;;;18.04;100.00;100316.81;5042633;28;20038;-81
2022/09/11 04:43:40;;;;;;;10.93;2.80;;;;;;;18.07;100.00;100316.41;5026120;28;20049;-83
2022/09/11 04:46:12;;;;;;;12.23;2.25;;;;;;;18.19;100.00;100323.75;5027522;28;20416;-81
2022/09/11 04:49:01;;;;;;;6.72;2.20;;;;;;;18.39;100.00;100321.78;5027133;28;20044;-81
2022/09/11 04:51:32;;;;;;;11.73;2.80;;;;;;;18.22;100.00;100326.00;5010783;28;20034;-86
2022/09/11 04:54:03;;;;;;;5.13;2.28;;;;;;;18.37;100.00;100323.81;5025514;28;20105;-82
2022/09/11 04:56:36;;;;;;;10.05;2.67;;;;;;;18.33;100.00;100319.94;5027323;28;20074;-87
2022/09/11 04:59:22;;;;;;;6.72;2.20;;;;;;;18.19;100.00;100326.44;5028931;28;20042;-81
2022/09/11 05:02:02;;;;;;;9.15;2.55;;;;;;;18.30;100.00;100334.59;5012853;28;20105;-86
2022/09/11 05:04:30;;;;;;;6.65;2.25;;;;;;;18.31;100.00;100328.22;5012436;28;20087;-81
2022/09/11 05:06:59;;;;;;;5.93;2.40;;;;;;;18.25;100.00;100334.44;5029790;28;20534;-81
2022/09/11 05:09:26;;;;;;;10.45;2.50;;;;;;;18.03;100.00;100341.16;5029099;28;20036;-84
2022/09/11 05:12:01;;;;;;;7.68;2.47;;;;;;;18.26;100.00;100340.63;5042957;28;20448;-81
2022/09/11 05:14:36;;;;;;;14.15;2.30;;;;;;;18.34;100.00;100353.78;5027773;28;20116;-80
2022/09/11 05:17:06;;;;;;;9.73;2.55;;;;;;;18.07;100.00;100343.22;5026481;28;20041;-81
2022/09/11 05:19:36;;;;;;;13.88;2.92;;;;;;;17.94;100.00;100342.47;5010709;28;20408;-82
2022/09/11 05:22:03;;;;;;;13.23;2.75;;;;;;;17.93;100.00;100338.94;5010694;28;20197;-80
2022/09/11 05:24:35;;;;;;;9.15;3.05;;;;;;;17.85;100.00;100349.94;5026758;28;20038;-81
2022/09/11 05:27:05;;;;;;;11.77;3.60;;;;;;;18.00;100.00;100346.97;5027298;28;20045;-82
2022/09/11 05:29:36;;;;;;;14.63;2.92;;;;;;;17.94;100.00;100351.34;5046633;28;20037;-83
2022/09/11 05:32:14;;;;;;;6.78;2.75;;;;;;;17.97;100.00;100353.59;5044201;28;20037;-84
2022/09/11 05:35:10;;;;;;;10.02;2.83;;;;;;;18.28;100.00;100365.38;5030844;28;20030;-84
2022/09/11 05:37:40;;;;;;;9.82;2.78;;;;;;;18.48;100.00;100366.91;5032138;28;20017;-85
2022/09/11 05:40:18;;;;;;;10.23;2.50;;;;;;;18.48;100.00;100371.44;5005694;28;20046;-83
2022/09/11 05:42:44;;;;;;;6.95;2.25;;;;;;;18.58;100.00;100374.50;5029701;28;20034;-83
2022/09/11 05:45:26;;;;;;;15.48;2.22;;;;;;;18.51;100.00;100382.59;5029234;28;20041;-83
2022/09/11 05:48:18;;;;;;;7.38;2.17;;;;;;;19.21;100.00;100387.81;5030683;28;20053;-83
2022/09/11 05:55:25;;;;;;;7.25;2.10;;;;;;;19.37;100.00;100393.44;5033503;28;20029;-87
2022/09/11 05:58:59;;;;;;;8.25;2.28;;;;;;;19.83;100.00;100392.13;5029011;23;20057;-85
2022/09/11 06:01:32;;;;;;;13.10;2.78;;;;;;;19.67;100.00;100398.09;5067563;23;20046;-86
2022/09/11 06:04:52;;;;;;;10.48;2.80;;;;;;;19.09;100.00;100399.28;5028442;28;20046;-86
2022/09/11 06:10:59;;;;;;;10.00;2.00;;;;;;;19.60;100.00;100412.44;5030069;28;20048;-84
2022/09/11 06:14:06;;;;;;;9.23;2.40;;;;;;;19.87;100.00;100410.28;5024399;28;20071;-88
2022/09/11 06:19:59;;;;;;;5.38;1.75;;;;;;;20.03;100.00;100425.81;5066986;23;20423;-87
2022/09/11 06:22:28;;;;;;;10.68;1.88;;;;;;;20.43;100.00;100425.31;5011250;28;20046;-82
2022/09/11 06:24:54;;;;;;;6.45;1.60;;;;;;;20.59;100.00;100428.19;5014570;28;20037;-83
2022/09/11 06:27:19;;;;;;;9.65;1.83;;;;;;;20.89;100.00;100430.00;5014847;28;20104;-83
2022/09/11 06:29:49;;;;;;;7.35;1.80;;;;;;;21.25;100.00;100432.53;5020646;28;20477;-82
2022/09/11 06:32:18;;;;;;;6.03;1.85;;;;;;;21.52;100.00;100431.03;4996772;28;20034;-84
2022/09/11 06:34:45;;;;;;;4.82;1.85;;;;;;;21.58;100.00;100429.25;5015285;28;20501;-83
2022/09/11 06:37:13;;;;;;;10.80;2.45;;;;;;;22.07;96.47;100423.31;5020874;28;20086;-85
2022/09/11 06:39:39;;;;;;;7.93;1.85;;;;;;;22.26;95.11;100426.66;5015109;28;20107;-83
2022/09/11 06:42:06;;;;;;;7.13;1.50;;;;;;;22.34;93.49;100420.88;5005717;28;20543;-84
2022/09/11 06:44:34;;;;;;;10.02;1.83;;;;;;;22.36;92.10;100426.03;5011282;28;20041;-82
2022/09/11 06:47:00;;;;;;;9.98;1.83;;;;;;;22.54;91.79;100423.13;5012720;28;20247;-84
2022/09/11 06:49:26;;;;;;;5.70;1.75;;;;;;;22.91;87.88;100427.06;5013700;28;20144;-84
2022/09/11 06:52:10;;;;;;;12.20;1.90;;;;;;;22.90;87.73;100430.81;5019994;28;20049;-82
2022/09/11 06:54:37;;;;;;;5.80;1.92;;;;;;;23.48;83.55;100440.41;5023416;28;20097;-83
2022/09/11 06:57:08;;;;;;;6.22;1.13;;;;;;;24.39;75.70;100436.19;5006051;28;20033;-82
2022/09/11 06:59:34;;;;;;;8.15;1.98;;;;;;;25.13;71.95;100443.41;5023342;28;20030;-85
2022/09/11 07:01:59;;;;;;;7.40;1.67;;;;;;;25.30;71.22;100443.28;5020538;28;20022;-83
2022/09/11 07:04:27;;;;;;;5.55;1.48;;;;;;;25.68;69.14;100461.19;5035801;28;20396;-84
2022/09/11 07:06:53;;;;;;;10.52;2.13;;;;;;;24.75;71.67;100451.75;5011319;28;20680;-83
2022/09/11 07:09:20;;;;;;;5.70;1.48;;;;;;;26.09;67.14;100460.31;5013429;28;20430;-89
2022/09/11 07:11:50;;;;;;;8.80;1.88;;;;;;;25.51;69.71;100449.69;5024451;28;20026;-84
2022/09/11 07:14:20;;;;;;;11.80;1.60;;;;;;;24.64;73.71;100455.41;5029352;28;20061;-82
2022/09/11 07:16:53;;;;;;;9.38;2.05;;;;;;;24.72;72.93;100454.97;5024518;28;20051;-81
2022/09/11 07:19:20;;;;;;;8.25;2.05;;;;;;;25.33;69.61;100458.19;5031850;28;20041;-80
2022/09/11 07:21:45;;;;;;;7.82;1.63;;;;;;;25.63;69.64;100453.84;5018978;28;20034;-83
2022/09/11 07:24:11;;;;;;;8.50;2.13;;;;;;;26.38;65.40;100454.47;5018102;28;20450;-83
2022/09/11 07:26:39;;;;;;;6.18;1.90;;;;;;;26.86;63.83;100456.75;5042070;28;20056;-81
2022/09/11 07:29:11;;;;;;;10.02;2.92;;;;;;;25.00;72.16;100456.59;5026610;28;20038;-85
2022/09/11 07:31:38;;;;;;;9.50;2.30;;;;;;;24.77;73.21;100456.88;5027910;28;20045;-82
2022/09/11 07:34:04;;;;;;;8.05;2.00;;;;;;;25.04;73.10;100450.41;5023091;28;20088;-84
2022/09/11 07:36:33;;;;;;;9.63;2.60;;;;;;;25.06;72.44;100453.66;5020545;28;20037;-81
2022/09/11 07:39:00;;;;;;;12.48;2.83;;;;;;;25.17;72.86;100451.84;5021596;28;20031;-83
2022/09/11 07:41:46;;;;;;;13.30;2.55;;;;;;;25.05;74.69;100446.63;5016481;28;20042;-81
2022/09/11 07:44:17;;;;;;;14.98;2.65;;;;;;;24.75;76.62;100451.75;5003542;28;20036;-81
2022/09/11 07:46:42;;;;;;;9.77;2.00;;;;;;;24.81;76.05;100453.41;5022840;28;20041;-82
2022/09/11 07:49:10;;;;;;;13.13;2.17;;;;;;;25.66;70.79;100452.50;5020372;28;20040;-82
2022/09/11 07:51:38;;;;;;;11.45;2.45;;;;;;;25.75;70.85;100459.06;5021859;28;20033;-86
2022/09/11 07:54:05;;;;;;;9.10;2.30;;;;;;;25.55;70.71;100461.66;5032659;28;20030;-86
2022/09/11 07:56:33;;;;;;;14.93;2.28;;;;;;;25.18;73.52;100456.22;5035914;28;20081;-84
2022/09/11 07:59:06;;;;;;;9.65;2.22;;;;;;;25.24;73.38;100462.50;5025809;28;20025;-84
2022/09/11 08:01:33;;;;;;;11.45;2.35;;;;;;;25.23;76.71;100463.56;5026456;28;20138;-88
2022/09/11 08:04:03;;;;;;;9.55;2.25;;;;;;;25.92;71.81;100465.13;5027761;28;20048;-86
2022/09/11 08:06:33;;;;;;;7.95;2.00;;;;;;;26.31;71.69;100465.59;5008820;28;20394;-85
2022/09/11 08:09:05;;;;;;;9.27;2.25;;;;;;;25.53;73.21;100463.81;5013508;28;20096;-85
2022/09/11 08:11:37;;;;;;;14.68;2.67;;;;;;;25.46;73.55;100471.31;5024265;28;20037;-88
2022/09/11 08:14:03;;;;;;;11.25;2.67;;;;;;;25.43;74.82;100469.13;5014088;28;20540;-86
2022/09/11 08:16:30;;;;;;;10.18;2.83;;;;;;;25.45;74.37;100467.00;5015028;28;20042;-82
2022/09/11 08:18:59;;;;;;;8.85;2.50;;;;;;;25.81;72.44;100478.91;5047808;28;20063;-85
2022/09/11 08:21:27;;;;;;;5.55;2.10;;;;;;;26.53;69.78;100476.25;5034442;28;20061;-86
2022/09/11 08:23:54;;;;;;;5.72;1.98;;;;;;;27.44;64.78;100479.09;5036984;28;20070;-84
2022/09/11 08:26:25;;;;;;;14.32;2.58;;;;;;;27.73;64.08;100480.13;5032238;28;20018;-83
2022/09/11 08:28:54;;;;;;;9.05;1.77;;;;;;;28.24;61.50;100486.25;5026928;28;20033;-84
2022/09/11 08:31:25;;;;;;;8.80;2.13;;;;;;;27.66;61.61;100487.78;5010603;28;20045;-83
2022/09/11 08:33:52;;;;;;;10.90;2.40;;;;;;;27.12;62.90;100487.50;5023659;28;20106;-85
2022/09/11 08:36:18;;;;;;;10.20;2.33;;;;;;;27.17;64.82;100485.63;5009283;28;20030;-84
2022/09/11 08:38:46;;;;;;;10.57;4.13;;;;;;;27.51;59.07;100485.88;5018141;28;20373;-88
2022/09/11 08:41:22;;;;;;;15.43;5.10;;;;;;;27.44;57.87;100484.56;5017228;28;20037;-84
2022/09/11 08:44:22;;;;;;;7.60;3.72;;;;;;;27.37;57.97;100487.53;5030617;28;20038;-86
2022/09/11 08:46:54;;;;;;;10.88;3.95;;;;;;;28.12;56.64;100491.22;5018414;28;20045;-85
2022/09/11 08:49:40;;;;;;;12.30;4.60;;;;;;;28.29;56.46;100491.69;5017175;28;20042;-84
2022/09/11 08:52:11;;;;;;;14.80;5.20;;;;;;;28.49;56.31;100496.22;5014871;28;20037;-82
2022/09/11 08:54:39;;;;;;;14.77;5.13;;;;;;;28.52;55.96;100495.66;5009208;28;20157;-85
2022/09/11 08:57:20;;;;;;;15.13;5.95;;;;;;;28.56;54.90;100494.00;4992375;28;20044;-83
2022/09/11 09:00:01;;;;;;;16.77;6.20;;;;;;;28.50;53.96;100495.97;5009821;28;20038;-85
2022/09/11 09:02:52;;;;;;;10.95;5.38;;;;;;;29.16;52.20;100495.53;5004253;28;20040;-85
2022/09/11 09:05:27;;;;;;;12.25;4.63;;;;;;;29.40;52.08;100490.19;4967244;28;20056;-85
2022/09/11 09:08:03;;;;;;;14.48;4.97;;;;;;;29.29;51.97;100494.09;5010536;28;20029;-84
2022/09/11 09:10:45;;;;;;;14.63;5.80;;;;;;;29.37;50.80;100496.19;5003868;28;20053;-83
2022/09/11 09:13:29;;;;;;;15.43;5.47;;;;;;;29.10;51.67;100508.38;5006695;28;20485;-88
2022/09/11 09:16:04;;;;;;;16.95;6.45;;;;;;;29.15;51.41;100500.19;4998523;28;20037;-88
2022/09/11 09:18:52;;;;;;;13.05;5.35;;;;;;;29.16;52.12;100501.81;5003804;28;20124;-89
2022/09/11 09:21:47;;;;;;;16.25;5.68;;;;;;;28.67;54.53;100504.59;5009169;28;20030;-88
2022/09/11 09:24:20;;;;;;;21.25;5.47;;;;;;;29.02;52.12;100500.81;5019505;28;20063;-86
2022/09/11 09:26:53;;;;;;;13.60;5.75;;;;;;;29.36;52.16;100489.13;5003387;28;20472;-83
2022/09/11 09:29:22;;;;;;;14.70;5.75;;;;;;;30.54;48.34;100499.28;5012332;28;20480;-88
2022/09/11 09:32:03;;;;;;;15.32;7.53;;;;;;;30.43;47.68;100495.06;4985528;28;20041;-87
2022/09/11 09:34:34;;;;;;;13.93;5.38;;;;;;;30.35;48.29;100501.16;5010129;28;20034;-83
2022/09/11 09:37:17;;;;;;;13.68;4.78;;;;;;;30.32;49.66;100505.31;5014398;28;20026;-89
2022/09/11 09:39:44;;;;;;;14.85;5.97;;;;;;;30.11;49.46;100502.00;5001884;28;20038;-87
2022/09/11 09:42:42;;;;;;;17.55;4.50;;;;;;;29.73;50.14;100500.22;5010748;28;20037;-87
2022/09/11 09:45:30;;;;;;;12.60;5.80;;;;;;;30.26;48.90;100504.53;5022231;28;20041;-90
2022/09/11 09:47:56;;;;;;;12.82;4.55;;;;;;;30.80;47.02;100497.81;5001317;28;20077;-89
2022/09/11 09:50:29;;;;;;;13.02;3.45;;;;;;;30.33;50.83;100500.66;5027350;28;20038;-86
2022/09/11 09:53:10;;;;;;;14.27;3.42;;;;;;;30.93;48.25;100504.47;5025326;28;20034;-88
2022/09/11 09:55:39;;;;;;;12.35;4.03;;;;;;;30.62;48.64;100495.91;5018421;28;20033;-89
2022/09/11 09:58:06;;;;;;;10.60;4.10;;;;;;;30.20;49.23;100492.03;5024387;28;20029;-91
2022/09/11 10:00:50;;;;;;;13.88;4.55;;;;;;;29.80;50.29;100486.22;5022347;28;20038;-90
2022/09/11 10:03:20;;;;;;;14.00;3.80;;;;;;;30.00;50.47;100489.56;5022391;28;20021;-89
2022/09/11 10:05:47;;;;;;;11.65;4.13;;;;;;;30.47;49.27;100485.16;5033469;28;20034;-92
2022/09/11 10:08:28;;;;;;;12.52;5.25;;;;;;;31.21;48.22;100485.16;5033839;28;20080;-91
2022/09/11 10:10:59;;;;;;;15.73;4.53;;;;;;;30.74;48.69;100480.66;5024769;28;20040;-90
2022/09/11 10:13:27;;;;;;;12.53;4.47;;;;;;;30.88;48.07;100478.00;5021896;28;20038;-91
2022/09/11 10:15:58;;;;;;;15.80;4.82;;;;;;;31.11;46.57;100477.09;5006304;28;20459;-90
2022/09/11 10:18:41;;;;;;;12.80;4.30;;;;;;;30.99;47.18;100474.00;5037597;28;20092;-92
2022/09/11 10:21:10;;;;;;;10.77;2.65;;;;;;;31.85;46.50;100475.25;5037637;28;20271;-89
2022/09/11 10:23:49;;;;;;;10.35;3.78;;;;;;;32.54;42.54;100486.97;5017161;28;20476;-91
2022/09/11 10:26:20;;;;;;;10.23;4.13;;;;;;;32.01;43.91;100478.50;5020299;28;20044;-91
2022/09/11 10:28:46;;;;;;;13.07;4.50;;;;;;;32.65;41.32;100477.41;5024853;28;20045;-90
2022/09/11 10:31:15;;;;;;;18.25;4.72;;;;;;;32.40;43.34;100477.97;5005623;28;20034;-89
2022/09/11 10:33:51;;;;;;;14.77;4.55;;;;;;;32.26;42.30;100473.31;5007237;28;20042;-89
2022/09/11 10:36:22;;;;;;;11.73;4.63;;;;;;;32.19;42.50;100470.16;5018927;28;20033;-90
2022/09/11 10:38:52;;;;;;;13.57;4.10;;;;;;;32.40;42.22;100475.22;5017311;28;20057;-89
2022/09/11 10:41:26;;;;;;;14.50;3.95;;;;;;;32.75;41.66;100471.69;5011864;28;20396;-83
2022/09/11 10:44:06;;;;;;;14.98;4.03;;;;;;;32.53;41.34;100480.69;5014102;28;20053;-85
2022/09/11 10:46:33;;;;;;;17.73;4.18;;;;;;;32.27;42.54;100471.38;5012226;28;20069;-81
2022/09/11 10:51:55;;;;;;;13.32;4.15;;;;;;;31.79;42.83;100462.75;5051903;23;20053;-84
2022/09/11 10:55:00;;;;;;;9.85;3.63;;;;;;;32.28;42.71;100465.56;5005741;28;20037;-88
2022/09/11 11:00:21;;;;;;;17.02;5.40;;;;;;;33.72;38.41;100465.41;4081407;26;20412;-83
2022/09/11 11:03:08;;;;;;;11.15;3.60;;;;;;;32.89;41.17;100468.88;5000129;28;20097;-84
2022/09/11 11:05:59;;;;;;;12.48;3.25;;;;;;;33.64;39.01;100471.69;5019254;28;20053;-83
2022/09/11 11:08:58;;;;;;;14.32;3.80;;;;;;;33.81;38.22;100466.25;5012203;28;20041;-89
2022/09/11 11:12:02;;;;;;;7.63;3.58;;;;;;;33.68;38.75;100456.16;5021695;28;20042;-86
2022/09/11 11:14:49;;;;;;;8.63;4.40;;;;;;;33.00;39.48;100462.03;5025188;28;20049;-87
2022/09/11 11:17:34;;;;;;;11.38;4.55;;;;;;;32.88;39.64;100448.84;5027459;28;20107;-88
2022/09/11 11:20:08;;;;;;;17.40;3.55;;;;;;;32.95;39.81;100454.72;5025475;28;20036;-89
2022/09/11 11:22:50;;;;;;;14.80;3.28;;;;;;;33.00;39.67;100451.06;5029515;28;20129;-87
2022/09/11 11:25:53;;;;;;;10.38;3.70;;;;;;;32.82;40.75;100444.63;5028469;28;20036;-88
2022/09/11 11:28:47;;;;;;;10.13;3.88;;;;;;;32.24;41.92;100439.09;5023390;28;20030;-86
2022/09/11 11:31:25;;;;;;;9.55;3.47;;;;;;;33.04;40.33;100441.88;5023184;28;20057;-88
2022/09/11 11:34:04;;;;;;;12.50;3.78;;;;;;;33.91;37.67;100438.47;5031617;28;20046;-89
2022/09/11 11:36:44;;;;;;;19.73;3.97;;;;;;;33.96;37.61;100440.25;5045422;28;20044;-88
2022/09/11 11:39:22;;;;;;;9.73;3.13;;;;;;;33.59;37.98;100438.81;5011265;28;20017;-85
2022/09/11 11:41:54;;;;;;;14.40;3.85;;;;;;;33.88;37.65;100450.09;5016763;28;20037;-86
2022/09/11 11:45:15;;;;;;;8.95;3.40;;;;;;;33.60;37.73;100451.44;5019260;28;20026;-85
2022/09/11 11:47:42;;;;;;;11.13;4.22;;;;;;;33.23;38.62;100447.19;4978341;28;20408;-83
2022/09/11 11:50:25;;;;;;;17.30;4.07;;;;;;;33.00;38.48;100446.38;5009968;28;20033;-82
2022/09/11 11:52:56;;;;;;;14.23;4.57;;;;;;;31.26;42.21;100435.75;5010033;28;20129;-88
2022/09/11 11:55:26;;;;;;;12.82;3.40;;;;;;;30.26;45.99;100449.06;5008410;28;20511;-89
2022/09/11 11:58:24;;;;;;;13.90;3.40;;;;;;;29.99;46.01;100433.28;5016069;28;20026;-90
2022/09/11 12:01:02;;;;;;;7.25;3.13;;;;;;;29.66;47.77;100434.19;5022671;28;20045;-89
2022/09/11 12:03:41;;;;;;;8.15;2.35;;;;;;;29.75;48.92;100421.50;5017398;28;20489;-88
2022/09/11 12:06:07;;;;;;;11.32;3.50;;;;;;;29.66;48.25;100428.72;5011390;28;20272;-90
2022/09/11 12:08:42;;;;;;;12.35;2.80;;;;;;;29.54;48.91;100420.91;5012063;28;20485;-88
2022/09/11 12:11:13;;;;;;;5.97;2.95;;;;;;;29.63;48.34;100423.84;4993813;28;20050;-91
2022/09/11 12:13:46;;;;;;;12.80;3.90;;;;;;;29.30;48.91;100419.28;5020106;28;20041;-90